sensor_id;sensor_type;location;lat;lon;timestamp;P1;durP1;ratioP1;P2;durP2;ratioP2
17365;SDS011;8800;50.118;9.900;2023-08-30T00:00:34;3.25;;;2.00;;
17365;SDS011;8800;50.118;9.900;2023-08-30T00:03:01;6.95;;;2.55;;
17365;SDS011;8800;50.118;9.900;2023-08-30T00:05:28;5.30;;;2.60;;
17365;SDS011;8800;50.118;9.900;2023-08-30T00:07:55;25.08;;;9.95;;
17365;SDS011;8800;50.118;9.900;2023-08-30T00:10:22;11.45;;;4.63;;
17365;SDS011;8800;50.118;9.900;2023-08-30T00:12:48;3.20;;;2.40;;
17365;SDS011;8800;50.118;9.900;2023-08-30T00:15:16;3.40;;;2.05;;
17365;SDS011;8800;50.118;9.900;2023-08-30T00:17:44;4.68;;;1.73;;
17365;SDS011;8800;50.118;9.900;2023-08-30T00:20:11;4.15;;;2.20;;
17365;SDS011;8800;50.118;9.900;2023-08-30T00:22:38;4.82;;;3.33;;
17365;SDS011;8800;50.118;9.900;2023-08-30T00:25:05;6.47;;;3.30;;
17365;SDS011;8800;50.118;9.900;2023-08-30T00:27:33;6.72;;;2.80;;
17365;SDS011;8800;50.118;9.900;2023-08-30T00:29:59;3.15;;;2.17;;
17365;SDS011;8800;50.118;9.900;2023-08-30T00:32:26;3.60;;;1.73;;
17365;SDS011;8800;50.118;9.900;2023-08-30T00:34:54;3.70;;;2.00;;
17365;SDS011;8800;50.118;9.900;2023-08-30T00:37:21;3.58;;;2.55;;
17365;SDS011;8800;50.118;9.900;2023-08-30T00:39:50;3.03;;;2.10;;
17365;SDS011;8800;50.118;9.900;2023-08-30T00:42:17;4.05;;;1.88;;
17365;SDS011;8800;50.118;9.900;2023-08-30T00:44:44;3.40;;;2.00;;
17365;SDS011;8800;50.118;9.900;2023-08-30T00:47:11;6.60;;;2.47;;
17365;SDS011;8800;50.118;9.900;2023-08-30T00:49:38;5.85;;;2.60;;
17365;SDS011;8800;50.118;9.900;2023-08-30T00:52:08;5.15;;;2.20;;
17365;SDS011;8800;50.118;9.900;2023-08-30T00:54:35;3.88;;;1.92;;
17365;SDS011;8800;50.118;9.900;2023-08-30T00:57:02;3.42;;;2.22;;
17365;SDS011;8800;50.118;9.900;2023-08-30T00:59:32;4.05;;;2.38;;
17365;SDS011;8800;50.118;9.900;2023-08-30T01:01:59;3.80;;;2.35;;
17365;SDS011;8800;50.118;9.900;2023-08-30T01:04:26;3.25;;;2.20;;
17365;SDS011;8800;50.118;9.900;2023-08-30T01:06:53;3.15;;;2.20;;
17365;SDS011;8800;50.118;9.900;2023-08-30T01:09:21;3.22;;;2.22;;
17365;SDS011;8800;50.118;9.900;2023-08-30T01:11:50;4.28;;;2.67;;
17365;SDS011;8800;50.118;9.900;2023-08-30T01:14:20;4.50;;;2.33;;
17365;SDS011;8800;50.118;9.900;2023-08-30T01:16:50;5.18;;;2.50;;
17365;SDS011;8800;50.118;9.900;2023-08-30T01:19:24;3.38;;;2.30;;
17365;SDS011;8800;50.118;9.900;2023-08-30T01:21:53;4.05;;;2.40;;
17365;SDS011;8800;50.118;9.900;2023-08-30T01:24:26;6.07;;;2.58;;
17365;SDS011;8800;50.118;9.900;2023-08-30T01:27:05;3.25;;;2.28;;
17365;SDS011;8800;50.118;9.900;2023-08-30T01:29:34;5.90;;;2.05;;
17365;SDS011;8800;50.118;9.900;2023-08-30T01:32:01;3.72;;;2.00;;
17365;SDS011;8800;50.118;9.900;2023-08-30T01:34:28;3.83;;;2.08;;
17365;SDS011;8800;50.118;9.900;2023-08-30T01:36:55;4.10;;;2.30;;
17365;SDS011;8800;50.118;9.900;2023-08-30T01:39:22;2.78;;;2.28;;
17365;SDS011;8800;50.118;9.900;2023-08-30T01:41:49;3.17;;;2.10;;
17365;SDS011;8800;50.118;9.900;2023-08-30T01:44:18;7.20;;;2.03;;
17365;SDS011;8800;50.118;9.900;2023-08-30T01:46:45;4.80;;;2.25;;
17365;SDS011;8800;50.118;9.900;2023-08-30T01:49:15;2.22;;;1.95;;
17365;SDS011;8800;50.118;9.900;2023-08-30T01:51:42;3.25;;;2.13;;
17365;SDS011;8800;50.118;9.900;2023-08-30T01:54:09;4.22;;;2.10;;
17365;SDS011;8800;50.118;9.900;2023-08-30T01:56:38;4.68;;;2.03;;
17365;SDS011;8800;50.118;9.900;2023-08-30T01:59:05;4.43;;;1.90;;
17365;SDS011;8800;50.118;9.900;2023-08-30T02:01:32;3.72;;;2.20;;
17365;SDS011;8800;50.118;9.900;2023-08-30T02:03:59;7.20;;;2.30;;
17365;SDS011;8800;50.118;9.900;2023-08-30T02:06:26;3.50;;;1.90;;
17365;SDS011;8800;50.118;9.900;2023-08-30T02:09:04;3.72;;;2.15;;
17365;SDS011;8800;50.118;9.900;2023-08-30T02:11:35;4.18;;;2.17;;
17365;SDS011;8800;50.118;9.900;2023-08-30T02:14:04;7.07;;;2.53;;
17365;SDS011;8800;50.118;9.900;2023-08-30T02:16:34;3.53;;;2.50;;
17365;SDS011;8800;50.118;9.900;2023-08-30T02:19:02;3.72;;;2.53;;
17365;SDS011;8800;50.118;9.900;2023-08-30T02:21:28;4.35;;;2.20;;
17365;SDS011;8800;50.118;9.900;2023-08-30T02:23:55;6.22;;;2.67;;
17365;SDS011;8800;50.118;9.900;2023-08-30T02:26:21;3.22;;;2.25;;
17365;SDS011;8800;50.118;9.900;2023-08-30T02:28:48;5.10;;;2.45;;
17365;SDS011;8800;50.118;9.900;2023-08-30T02:31:15;2.40;;;2.13;;
17365;SDS011;8800;50.118;9.900;2023-08-30T02:33:43;3.05;;;2.60;;
17365;SDS011;8800;50.118;9.900;2023-08-30T02:36:10;5.32;;;2.60;;
17365;SDS011;8800;50.118;9.900;2023-08-30T02:38:39;3.50;;;3.10;;
17365;SDS011;8800;50.118;9.900;2023-08-30T02:41:08;5.03;;;3.13;;
17365;SDS011;8800;50.118;9.900;2023-08-30T02:43:35;3.90;;;2.90;;
17365;SDS011;8800;50.118;9.900;2023-08-30T02:46:02;5.25;;;3.00;;
17365;SDS011;8800;50.118;9.900;2023-08-30T02:48:30;3.33;;;2.60;;
17365;SDS011;8800;50.118;9.900;2023-08-30T02:50:58;3.50;;;2.55;;
17365;SDS011;8800;50.118;9.900;2023-08-30T02:53:25;5.70;;;3.15;;
17365;SDS011;8800;50.118;9.900;2023-08-30T02:55:52;4.65;;;2.42;;
17365;SDS011;8800;50.118;9.900;2023-08-30T02:58:21;5.28;;;2.63;;
17365;SDS011;8800;50.118;9.900;2023-08-30T03:00:47;6.65;;;2.80;;
17365;SDS011;8800;50.118;9.900;2023-08-30T03:03:14;5.30;;;2.60;;
17365;SDS011;8800;50.118;9.900;2023-08-30T03:05:41;6.13;;;2.95;;
17365;SDS011;8800;50.118;9.900;2023-08-30T03:08:09;6.18;;;2.83;;
17365;SDS011;8800;50.118;9.900;2023-08-30T03:10:36;4.13;;;2.92;;
17365;SDS011;8800;50.118;9.900;2023-08-30T03:13:03;4.25;;;2.72;;
17365;SDS011;8800;50.118;9.900;2023-08-30T03:15:30;4.78;;;3.20;;
17365;SDS011;8800;50.118;9.900;2023-08-30T03:17:57;6.45;;;2.88;;
17365;SDS011;8800;50.118;9.900;2023-08-30T03:20:24;4.53;;;3.03;;
17365;SDS011;8800;50.118;9.900;2023-08-30T03:22:55;2.95;;;2.65;;
17365;SDS011;8800;50.118;9.900;2023-08-30T03:25:24;4.85;;;2.90;;
17365;SDS011;8800;50.118;9.900;2023-08-30T03:27:51;11.07;;;3.60;;
17365;SDS011;8800;50.118;9.900;2023-08-30T03:30:21;5.13;;;2.80;;
17365;SDS011;8800;50.118;9.900;2023-08-30T03:32:47;5.20;;;3.20;;
17365;SDS011;8800;50.118;9.900;2023-08-30T03:35:15;5.95;;;3.05;;
17365;SDS011;8800;50.118;9.900;2023-08-30T03:37:42;5.57;;;3.60;;
17365;SDS011;8800;50.118;9.900;2023-08-30T03:40:13;5.57;;;3.80;;
17365;SDS011;8800;50.118;9.900;2023-08-30T03:42:45;5.03;;;3.80;;
17365;SDS011;8800;50.118;9.900;2023-08-30T03:45:11;10.32;;;3.92;;
17365;SDS011;8800;50.118;9.900;2023-08-30T03:47:39;7.30;;;3.50;;
17365;SDS011;8800;50.118;9.900;2023-08-30T03:50:06;7.63;;;3.50;;
17365;SDS011;8800;50.118;9.900;2023-08-30T03:52:33;6.60;;;3.80;;
17365;SDS011;8800;50.118;9.900;2023-08-30T03:55:00;5.22;;;3.30;;
17365;SDS011;8800;50.118;9.900;2023-08-30T03:57:27;6.82;;;3.60;;
17365;SDS011;8800;50.118;9.900;2023-08-30T03:59:55;10.43;;;3.83;;
17365;SDS011;8800;50.118;9.900;2023-08-30T04:02:22;7.25;;;3.60;;
17365;SDS011;8800;50.118;9.900;2023-08-30T04:04:49;10.95;;;3.63;;
17365;SDS011;8800;50.118;9.900;2023-08-30T04:07:16;6.68;;;4.28;;
17365;SDS011;8800;50.118;9.900;2023-08-30T04:09:42;6.53;;;4.82;;
17365;SDS011;8800;50.118;9.900;2023-08-30T04:12:09;10.10;;;4.93;;
17365;SDS011;8800;50.118;9.900;2023-08-30T04:14:35;27.88;;;5.55;;
17365;SDS011;8800;50.118;9.900;2023-08-30T04:17:03;9.95;;;5.03;;
17365;SDS011;8800;50.118;9.900;2023-08-30T04:19:30;21.73;;;5.20;;
17365;SDS011;8800;50.118;9.900;2023-08-30T04:21:57;10.27;;;5.28;;
17365;SDS011;8800;50.118;9.900;2023-08-30T04:24:24;17.70;;;5.60;;
17365;SDS011;8800;50.118;9.900;2023-08-30T04:26:51;7.95;;;5.55;;
17365;SDS011;8800;50.118;9.900;2023-08-30T04:29:19;9.85;;;5.75;;
17365;SDS011;8800;50.118;9.900;2023-08-30T04:31:46;10.05;;;5.53;;
17365;SDS011;8800;50.118;9.900;2023-08-30T04:34:15;10.63;;;5.68;;
17365;SDS011;8800;50.118;9.900;2023-08-30T04:36:44;10.60;;;6.40;;
17365;SDS011;8800;50.118;9.900;2023-08-30T04:39:13;7.50;;;5.63;;
17365;SDS011;8800;50.118;9.900;2023-08-30T04:41:40;9.05;;;6.22;;
17365;SDS011;8800;50.118;9.900;2023-08-30T04:44:07;9.77;;;6.20;;
17365;SDS011;8800;50.118;9.900;2023-08-30T04:46:36;9.52;;;6.03;;
17365;SDS011;8800;50.118;9.900;2023-08-30T04:49:06;13.70;;;7.80;;
17365;SDS011;8800;50.118;9.900;2023-08-30T04:51:46;9.75;;;5.90;;
17365;SDS011;8800;50.118;9.900;2023-08-30T04:54:13;8.15;;;4.60;;
17365;SDS011;8800;50.118;9.900;2023-08-30T04:56:47;8.32;;;4.68;;
17365;SDS011;8800;50.118;9.900;2023-08-30T04:59:14;6.28;;;4.40;;
17365;SDS011;8800;50.118;9.900;2023-08-30T05:01:41;8.60;;;4.63;;
17365;SDS011;8800;50.118;9.900;2023-08-30T05:04:11;13.05;;;5.00;;
17365;SDS011;8800;50.118;9.900;2023-08-30T05:06:39;16.45;;;4.88;;
17365;SDS011;8800;50.118;9.900;2023-08-30T05:09:06;8.38;;;5.68;;
17365;SDS011;8800;50.118;9.900;2023-08-30T05:11:33;8.05;;;5.38;;
17365;SDS011;8800;50.118;9.900;2023-08-30T05:14:00;17.42;;;5.97;;
17365;SDS011;8800;50.118;9.900;2023-08-30T05:16:27;17.05;;;6.53;;
17365;SDS011;8800;50.118;9.900;2023-08-30T05:18:53;9.02;;;6.03;;
17365;SDS011;8800;50.118;9.900;2023-08-30T05:21:20;38.92;;;6.65;;
17365;SDS011;8800;50.118;9.900;2023-08-30T05:23:48;10.07;;;6.40;;
17365;SDS011;8800;50.118;9.900;2023-08-30T05:26:15;31.67;;;6.00;;
17365;SDS011;8800;50.118;9.900;2023-08-30T05:28:42;9.93;;;5.88;;
17365;SDS011;8800;50.118;9.900;2023-08-30T05:31:11;18.60;;;6.10;;
17365;SDS011;8800;50.118;9.900;2023-08-30T05:33:38;7.97;;;5.60;;
17365;SDS011;8800;50.118;9.900;2023-08-30T05:36:05;9.55;;;5.72;;
17365;SDS011;8800;50.118;9.900;2023-08-30T05:38:34;8.52;;;5.72;;
17365;SDS011;8800;50.118;9.900;2023-08-30T05:41:02;9.85;;;6.35;;
17365;SDS011;8800;50.118;9.900;2023-08-30T05:43:29;10.23;;;6.43;;
17365;SDS011;8800;50.118;9.900;2023-08-30T05:45:56;9.98;;;6.50;;
17365;SDS011;8800;50.118;9.900;2023-08-30T05:48:27;10.55;;;7.05;;
17365;SDS011;8800;50.118;9.900;2023-08-30T05:50:53;16.63;;;6.05;;
17365;SDS011;8800;50.118;9.900;2023-08-30T05:53:20;11.88;;;5.93;;
17365;SDS011;8800;50.118;9.900;2023-08-30T05:55:47;18.95;;;6.05;;
17365;SDS011;8800;50.118;9.900;2023-08-30T05:58:16;13.18;;;6.13;;
17365;SDS011;8800;50.118;9.900;2023-08-30T06:00:43;10.25;;;7.07;;
17365;SDS011;8800;50.118;9.900;2023-08-30T06:03:10;10.88;;;6.47;;
17365;SDS011;8800;50.118;9.900;2023-08-30T06:05:37;9.55;;;6.50;;
17365;SDS011;8800;50.118;9.900;2023-08-30T06:08:04;10.00;;;6.65;;
17365;SDS011;8800;50.118;9.900;2023-08-30T06:10:30;9.55;;;6.85;;
17365;SDS011;8800;50.118;9.900;2023-08-30T06:12:57;13.27;;;8.40;;
17365;SDS011;8800;50.118;9.900;2023-08-30T06:15:25;14.98;;;7.80;;
17365;SDS011;8800;50.118;9.900;2023-08-30T06:17:51;16.77;;;8.10;;
17365;SDS011;8800;50.118;9.900;2023-08-30T06:20:18;10.85;;;7.55;;
17365;SDS011;8800;50.118;9.900;2023-08-30T06:22:45;12.73;;;7.10;;
17365;SDS011;8800;50.118;9.900;2023-08-30T06:25:12;12.10;;;7.18;;
17365;SDS011;8800;50.118;9.900;2023-08-30T06:27:40;9.60;;;7.70;;
17365;SDS011;8800;50.118;9.900;2023-08-30T06:30:07;11.15;;;6.93;;
17365;SDS011;8800;50.118;9.900;2023-08-30T06:32:35;9.98;;;6.57;;
17365;SDS011;8800;50.118;9.900;2023-08-30T06:35:02;12.65;;;8.38;;
17365;SDS011;8800;50.118;9.900;2023-08-30T06:37:29;9.35;;;6.30;;
17365;SDS011;8800;50.118;9.900;2023-08-30T06:39:55;9.60;;;6.63;;
17365;SDS011;8800;50.118;9.900;2023-08-30T06:42:22;7.97;;;5.30;;
17365;SDS011;8800;50.118;9.900;2023-08-30T06:44:50;7.75;;;5.40;;
17365;SDS011;8800;50.118;9.900;2023-08-30T06:47:16;8.68;;;5.85;;
17365;SDS011;8800;50.118;9.900;2023-08-30T06:49:44;6.82;;;5.20;;
17365;SDS011;8800;50.118;9.900;2023-08-30T06:52:11;7.85;;;6.00;;
17365;SDS011;8800;50.118;9.900;2023-08-30T06:54:38;8.80;;;6.15;;
17365;SDS011;8800;50.118;9.900;2023-08-30T06:57:04;9.45;;;6.70;;
17365;SDS011;8800;50.118;9.900;2023-08-30T06:59:32;8.95;;;6.40;;
17365;SDS011;8800;50.118;9.900;2023-08-30T07:01:58;8.80;;;6.30;;
17365;SDS011;8800;50.118;9.900;2023-08-30T07:04:25;9.43;;;6.25;;
17365;SDS011;8800;50.118;9.900;2023-08-30T07:06:54;7.28;;;5.63;;
17365;SDS011;8800;50.118;9.900;2023-08-30T07:09:21;7.57;;;6.22;;
17365;SDS011;8800;50.118;9.900;2023-08-30T07:11:54;9.07;;;5.93;;
17365;SDS011;8800;50.118;9.900;2023-08-30T07:14:20;8.25;;;6.47;;
17365;SDS011;8800;50.118;9.900;2023-08-30T07:16:47;7.78;;;6.22;;
17365;SDS011;8800;50.118;9.900;2023-08-30T07:19:14;8.85;;;6.68;;
17365;SDS011;8800;50.118;9.900;2023-08-30T07:21:41;7.65;;;5.13;;
17365;SDS011;8800;50.118;9.900;2023-08-30T07:24:09;5.70;;;4.95;;
17365;SDS011;8800;50.118;9.900;2023-08-30T07:26:36;7.07;;;5.30;;
17365;SDS011;8800;50.118;9.900;2023-08-30T07:29:03;8.07;;;4.82;;
17365;SDS011;8800;50.118;9.900;2023-08-30T07:31:31;7.22;;;6.10;;
17365;SDS011;8800;50.118;9.900;2023-08-30T07:33:57;10.07;;;5.95;;
17365;SDS011;8800;50.118;9.900;2023-08-30T07:36:27;7.10;;;5.90;;
17365;SDS011;8800;50.118;9.900;2023-08-30T07:38:54;9.52;;;6.32;;
17365;SDS011;8800;50.118;9.900;2023-08-30T07:41:23;8.77;;;6.32;;
17365;SDS011;8800;50.118;9.900;2023-08-30T07:43:49;8.75;;;6.15;;
17365;SDS011;8800;50.118;9.900;2023-08-30T07:46:16;8.75;;;5.90;;
17365;SDS011;8800;50.118;9.900;2023-08-30T07:48:42;7.70;;;5.95;;
17365;SDS011;8800;50.118;9.900;2023-08-30T07:51:09;8.20;;;5.75;;
17365;SDS011;8800;50.118;9.900;2023-08-30T07:53:35;7.28;;;5.43;;
17365;SDS011;8800;50.118;9.900;2023-08-30T07:56:02;8.50;;;6.25;;
17365;SDS011;8800;50.118;9.900;2023-08-30T07:58:30;10.25;;;6.13;;
17365;SDS011;8800;50.118;9.900;2023-08-30T08:00:56;7.78;;;6.30;;
17365;SDS011;8800;50.118;9.900;2023-08-30T08:03:23;6.95;;;5.43;;
17365;SDS011;8800;50.118;9.900;2023-08-30T08:05:50;6.80;;;5.35;;
17365;SDS011;8800;50.118;9.900;2023-08-30T08:08:16;9.30;;;5.57;;
17365;SDS011;8800;50.118;9.900;2023-08-30T08:10:43;7.60;;;5.40;;
17365;SDS011;8800;50.118;9.900;2023-08-30T08:13:09;8.10;;;5.78;;
17365;SDS011;8800;50.118;9.900;2023-08-30T08:15:39;6.43;;;4.68;;
17365;SDS011;8800;50.118;9.900;2023-08-30T08:18:05;7.53;;;5.10;;
17365;SDS011;8800;50.118;9.900;2023-08-30T08:20:32;7.20;;;4.93;;
17365;SDS011;8800;50.118;9.900;2023-08-30T08:23:01;7.93;;;5.13;;
17365;SDS011;8800;50.118;9.900;2023-08-30T08:25:28;6.95;;;4.85;;
17365;SDS011;8800;50.118;9.900;2023-08-30T08:27:55;7.20;;;4.22;;
17365;SDS011;8800;50.118;9.900;2023-08-30T08:30:21;8.68;;;4.97;;
17365;SDS011;8800;50.118;9.900;2023-08-30T08:32:49;6.72;;;4.78;;
17365;SDS011;8800;50.118;9.900;2023-08-30T08:35:16;6.95;;;4.88;;
17365;SDS011;8800;50.118;9.900;2023-08-30T08:37:43;8.05;;;5.45;;
17365;SDS011;8800;50.118;9.900;2023-08-30T08:40:09;9.38;;;5.57;;
17365;SDS011;8800;50.118;9.900;2023-08-30T08:42:36;7.50;;;5.38;;
17365;SDS011;8800;50.118;9.900;2023-08-30T08:45:03;6.95;;;5.63;;
17365;SDS011;8800;50.118;9.900;2023-08-30T08:47:30;10.95;;;7.10;;
17365;SDS011;8800;50.118;9.900;2023-08-30T08:49:59;11.25;;;7.18;;
17365;SDS011;8800;50.118;9.900;2023-08-30T08:52:26;12.77;;;7.60;;
17365;SDS011;8800;50.118;9.900;2023-08-30T08:54:54;16.98;;;9.35;;
17365;SDS011;8800;50.118;9.900;2023-08-30T08:57:21;17.70;;;8.40;;
17365;SDS011;8800;50.118;9.900;2023-08-30T08:59:47;15.52;;;7.57;;
17365;SDS011;8800;50.118;9.900;2023-08-30T09:02:15;14.55;;;8.35;;
17365;SDS011;8800;50.118;9.900;2023-08-30T09:04:42;14.68;;;7.90;;
17365;SDS011;8800;50.118;9.900;2023-08-30T09:07:10;16.40;;;7.05;;
17365;SDS011;8800;50.118;9.900;2023-08-30T09:09:37;16.10;;;8.75;;
17365;SDS011;8800;50.118;9.900;2023-08-30T09:12:04;15.77;;;8.05;;
17365;SDS011;8800;50.118;9.900;2023-08-30T09:14:30;17.35;;;8.15;;
17365;SDS011;8800;50.118;9.900;2023-08-30T09:16:57;15.52;;;7.45;;
17365;SDS011;8800;50.118;9.900;2023-08-30T09:19:25;14.70;;;7.20;;
17365;SDS011;8800;50.118;9.900;2023-08-30T09:21:52;12.05;;;6.30;;
17365;SDS011;8800;50.118;9.900;2023-08-30T09:24:20;13.02;;;5.88;;
17365;SDS011;8800;50.118;9.900;2023-08-30T09:26:47;10.55;;;6.30;;
17365;SDS011;8800;50.118;9.900;2023-08-30T09:29:15;9.65;;;5.85;;
17365;SDS011;8800;50.118;9.900;2023-08-30T09:31:42;10.93;;;6.13;;
17365;SDS011;8800;50.118;9.900;2023-08-30T09:34:09;8.63;;;5.93;;
17365;SDS011;8800;50.118;9.900;2023-08-30T09:36:36;11.95;;;6.05;;
17365;SDS011;8800;50.118;9.900;2023-08-30T09:39:03;9.27;;;5.57;;
17365;SDS011;8800;50.118;9.900;2023-08-30T09:41:34;10.55;;;6.38;;
17365;SDS011;8800;50.118;9.900;2023-08-30T09:44:05;11.18;;;5.80;;
17365;SDS011;8800;50.118;9.900;2023-08-30T09:46:32;11.55;;;5.07;;
17365;SDS011;8800;50.118;9.900;2023-08-30T09:48:59;9.32;;;5.15;;
17365;SDS011;8800;50.118;9.900;2023-08-30T09:51:26;11.43;;;5.40;;
17365;SDS011;8800;50.118;9.900;2023-08-30T09:53:53;9.40;;;5.28;;
17365;SDS011;8800;50.118;9.900;2023-08-30T09:56:23;8.43;;;4.90;;
17365;SDS011;8800;50.118;9.900;2023-08-30T09:58:52;6.75;;;4.80;;
17365;SDS011;8800;50.118;9.900;2023-08-30T10:01:20;7.68;;;4.80;;
17365;SDS011;8800;50.118;9.900;2023-08-30T10:03:46;7.50;;;4.20;;
17365;SDS011;8800;50.118;9.900;2023-08-30T10:06:13;7.95;;;4.47;;
17365;SDS011;8800;50.118;9.900;2023-08-30T10:08:40;7.97;;;4.45;;
17365;SDS011;8800;50.118;9.900;2023-08-30T10:11:07;7.40;;;4.15;;
17365;SDS011;8800;50.118;9.900;2023-08-30T10:13:34;6.85;;;4.60;;
17365;SDS011;8800;50.118;9.900;2023-08-30T10:16:03;8.90;;;4.80;;
17365;SDS011;8800;50.118;9.900;2023-08-30T10:18:30;8.73;;;4.90;;
17365;SDS011;8800;50.118;9.900;2023-08-30T10:20:58;6.13;;;4.07;;
17365;SDS011;8800;50.118;9.900;2023-08-30T10:23:25;8.68;;;4.78;;
17365;SDS011;8800;50.118;9.900;2023-08-30T10:25:52;6.57;;;5.20;;
17365;SDS011;8800;50.118;9.900;2023-08-30T10:28:19;7.85;;;4.47;;
17365;SDS011;8800;50.118;9.900;2023-08-30T10:30:48;8.85;;;5.28;;
17365;SDS011;8800;50.118;9.900;2023-08-30T10:33:16;6.20;;;4.72;;
17365;SDS011;8800;50.118;9.900;2023-08-30T10:35:46;8.65;;;5.35;;
17365;SDS011;8800;50.118;9.900;2023-08-30T10:38:23;8.15;;;5.30;;
17365;SDS011;8800;50.118;9.900;2023-08-30T10:40:50;8.35;;;5.35;;
17365;SDS011;8800;50.118;9.900;2023-08-30T10:43:17;7.03;;;5.25;;
17365;SDS011;8800;50.118;9.900;2023-08-30T10:45:58;8.05;;;5.80;;
17365;SDS011;8800;50.118;9.900;2023-08-30T10:48:34;8.27;;;5.70;;
17365;SDS011;8800;50.118;9.900;2023-08-30T10:51:02;9.63;;;5.63;;
17365;SDS011;8800;50.118;9.900;2023-08-30T10:53:29;8.73;;;5.53;;
17365;SDS011;8800;50.118;9.900;2023-08-30T10:56:03;9.48;;;6.40;;
17365;SDS011;8800;50.118;9.900;2023-08-30T10:58:38;12.05;;;5.63;;
17365;SDS011;8800;50.118;9.900;2023-08-30T11:01:05;6.82;;;5.35;;
17365;SDS011;8800;50.118;9.900;2023-08-30T11:03:34;7.03;;;4.97;;
17365;SDS011;8800;50.118;9.900;2023-08-30T11:06:04;8.68;;;5.78;;
17365;SDS011;8800;50.118;9.900;2023-08-30T11:08:30;6.88;;;4.93;;
17365;SDS011;8800;50.118;9.900;2023-08-30T11:11:02;9.65;;;5.43;;
17365;SDS011;8800;50.118;9.900;2023-08-30T11:13:29;7.15;;;5.20;;
17365;SDS011;8800;50.118;9.900;2023-08-30T11:15:59;7.80;;;4.88;;
17365;SDS011;8800;50.118;9.900;2023-08-30T11:18:26;7.35;;;4.93;;
17365;SDS011;8800;50.118;9.900;2023-08-30T11:20:57;5.70;;;4.18;;
17365;SDS011;8800;50.118;9.900;2023-08-30T11:23:23;5.53;;;4.15;;
17365;SDS011;8800;50.118;9.900;2023-08-30T11:25:50;7.88;;;4.93;;
17365;SDS011;8800;50.118;9.900;2023-08-30T11:28:21;6.20;;;3.97;;
17365;SDS011;8800;50.118;9.900;2023-08-30T11:30:48;7.35;;;3.92;;
17365;SDS011;8800;50.118;9.900;2023-08-30T11:33:16;3.85;;;3.45;;
17365;SDS011;8800;50.118;9.900;2023-08-30T11:35:43;6.30;;;4.22;;
17365;SDS011;8800;50.118;9.900;2023-08-30T11:38:11;4.00;;;3.50;;
17365;SDS011;8800;50.118;9.900;2023-08-30T11:40:37;4.72;;;3.50;;
17365;SDS011;8800;50.118;9.900;2023-08-30T11:43:04;4.10;;;3.53;;
17365;SDS011;8800;50.118;9.900;2023-08-30T11:45:31;6.90;;;3.40;;
17365;SDS011;8800;50.118;9.900;2023-08-30T11:47:58;4.88;;;3.65;;
17365;SDS011;8800;50.118;9.900;2023-08-30T11:50:25;4.25;;;3.20;;
17365;SDS011;8800;50.118;9.900;2023-08-30T11:52:52;3.63;;;3.30;;
17365;SDS011;8800;50.118;9.900;2023-08-30T11:55:21;4.65;;;3.67;;
17365;SDS011;8800;50.118;9.900;2023-08-30T11:57:48;8.07;;;3.90;;
17365;SDS011;8800;50.118;9.900;2023-08-30T12:00:17;5.75;;;3.35;;
17365;SDS011;8800;50.118;9.900;2023-08-30T12:02:44;4.85;;;3.38;;
17365;SDS011;8800;50.118;9.900;2023-08-30T12:05:12;3.88;;;2.95;;
17365;SDS011;8800;50.118;9.900;2023-08-30T12:07:39;3.10;;;2.50;;
17365;SDS011;8800;50.118;9.900;2023-08-30T12:10:05;4.95;;;2.70;;
17365;SDS011;8800;50.118;9.900;2023-08-30T12:12:34;3.17;;;2.58;;
17365;SDS011;8800;50.118;9.900;2023-08-30T12:15:01;3.65;;;2.75;;
17365;SDS011;8800;50.118;9.900;2023-08-30T12:17:29;4.55;;;2.80;;
17365;SDS011;8800;50.118;9.900;2023-08-30T12:19:57;3.95;;;2.97;;
17365;SDS011;8800;50.118;9.900;2023-08-30T12:22:24;4.43;;;3.78;;
17365;SDS011;8800;50.118;9.900;2023-08-30T12:25:00;5.57;;;4.18;;
17365;SDS011;8800;50.118;9.900;2023-08-30T12:27:27;5.97;;;3.75;;
17365;SDS011;8800;50.118;9.900;2023-08-30T12:29:55;3.10;;;2.80;;
17365;SDS011;8800;50.118;9.900;2023-08-30T12:32:21;5.28;;;2.80;;
17365;SDS011;8800;50.118;9.900;2023-08-30T12:34:48;4.82;;;3.22;;
17365;SDS011;8800;50.118;9.900;2023-08-30T12:37:14;6.10;;;3.88;;
17365;SDS011;8800;50.118;9.900;2023-08-30T12:39:41;5.93;;;4.18;;
17365;SDS011;8800;50.118;9.900;2023-08-30T12:42:08;5.65;;;3.60;;
17365;SDS011;8800;50.118;9.900;2023-08-30T12:44:35;4.07;;;3.60;;
17365;SDS011;8800;50.118;9.900;2023-08-30T12:47:03;4.75;;;4.00;;
17365;SDS011;8800;50.118;9.900;2023-08-30T12:49:30;7.05;;;3.95;;
17365;SDS011;8800;50.118;9.900;2023-08-30T12:51:57;4.43;;;3.95;;
17365;SDS011;8800;50.118;9.900;2023-08-30T12:54:24;5.13;;;4.03;;
17365;SDS011;8800;50.118;9.900;2023-08-30T12:56:51;6.38;;;4.50;;
17365;SDS011;8800;50.118;9.900;2023-08-30T12:59:17;6.25;;;4.10;;
17365;SDS011;8800;50.118;9.900;2023-08-30T13:01:44;6.13;;;3.78;;
17365;SDS011;8800;50.118;9.900;2023-08-30T13:04:12;4.65;;;3.63;;
17365;SDS011;8800;50.118;9.900;2023-08-30T13:06:39;3.97;;;3.47;;
17365;SDS011;8800;50.118;9.900;2023-08-30T13:09:05;7.25;;;3.20;;
17365;SDS011;8800;50.118;9.900;2023-08-30T13:11:32;4.65;;;3.40;;
17365;SDS011;8800;50.118;9.900;2023-08-30T13:13:58;5.32;;;4.07;;
17365;SDS011;8800;50.118;9.900;2023-08-30T13:16:25;5.05;;;3.78;;
17365;SDS011;8800;50.118;9.900;2023-08-30T13:18:52;4.15;;;3.63;;
17365;SDS011;8800;50.118;9.900;2023-08-30T13:21:20;5.00;;;3.90;;
17365;SDS011;8800;50.118;9.900;2023-08-30T13:23:47;4.80;;;3.70;;
17365;SDS011;8800;50.118;9.900;2023-08-30T13:26:13;5.13;;;3.50;;
17365;SDS011;8800;50.118;9.900;2023-08-30T13:28:40;5.72;;;3.58;;
17365;SDS011;8800;50.118;9.900;2023-08-30T13:31:07;4.35;;;3.33;;
17365;SDS011;8800;50.118;9.900;2023-08-30T13:33:33;4.28;;;3.58;;
17365;SDS011;8800;50.118;9.900;2023-08-30T13:36:00;4.00;;;3.35;;
17365;SDS011;8800;50.118;9.900;2023-08-30T13:38:31;4.80;;;3.58;;
17365;SDS011;8800;50.118;9.900;2023-08-30T13:41:00;4.03;;;3.60;;
17365;SDS011;8800;50.118;9.900;2023-08-30T13:43:28;3.97;;;3.13;;
17365;SDS011;8800;50.118;9.900;2023-08-30T13:45:59;4.32;;;3.70;;
17365;SDS011;8800;50.118;9.900;2023-08-30T13:48:25;6.25;;;3.25;;
17365;SDS011;8800;50.118;9.900;2023-08-30T13:50:52;4.30;;;3.10;;
17365;SDS011;8800;50.118;9.900;2023-08-30T13:53:18;4.82;;;2.70;;
17365;SDS011;8800;50.118;9.900;2023-08-30T13:55:47;5.00;;;3.00;;
17365;SDS011;8800;50.118;9.900;2023-08-30T13:58:13;2.90;;;2.53;;
17365;SDS011;8800;50.118;9.900;2023-08-30T14:00:40;3.08;;;2.78;;
17365;SDS011;8800;50.118;9.900;2023-08-30T14:03:07;2.75;;;2.45;;
17365;SDS011;8800;50.118;9.900;2023-08-30T14:05:34;3.40;;;2.50;;
17365;SDS011;8800;50.118;9.900;2023-08-30T14:08:01;4.47;;;2.85;;
17365;SDS011;8800;50.118;9.900;2023-08-30T14:10:28;4.07;;;2.80;;
17365;SDS011;8800;50.118;9.900;2023-08-30T14:12:55;3.05;;;2.70;;
17365;SDS011;8800;50.118;9.900;2023-08-30T14:15:22;3.38;;;2.50;;
17365;SDS011;8800;50.118;9.900;2023-08-30T14:17:49;2.75;;;2.30;;
17365;SDS011;8800;50.118;9.900;2023-08-30T14:20:18;3.00;;;2.45;;
17365;SDS011;8800;50.118;9.900;2023-08-30T14:22:45;4.07;;;2.50;;
17365;SDS011;8800;50.118;9.900;2023-08-30T14:25:11;7.18;;;4.13;;
17365;SDS011;8800;50.118;9.900;2023-08-30T14:27:38;3.60;;;2.95;;
17365;SDS011;8800;50.118;9.900;2023-08-30T14:30:07;3.70;;;2.53;;
17365;SDS011;8800;50.118;9.900;2023-08-30T14:32:34;3.75;;;2.58;;
17365;SDS011;8800;50.118;9.900;2023-08-30T14:35:02;2.85;;;2.55;;
17365;SDS011;8800;50.118;9.900;2023-08-30T14:37:30;2.78;;;1.98;;
17365;SDS011;8800;50.118;9.900;2023-08-30T14:39:59;3.00;;;1.88;;
17365;SDS011;8800;50.118;9.900;2023-08-30T14:42:26;3.35;;;2.20;;
17365;SDS011;8800;50.118;9.900;2023-08-30T14:44:52;3.38;;;2.28;;
17365;SDS011;8800;50.118;9.900;2023-08-30T14:47:21;3.50;;;2.13;;
17365;SDS011;8800;50.118;9.900;2023-08-30T14:49:47;2.55;;;2.00;;
17365;SDS011;8800;50.118;9.900;2023-08-30T14:52:16;3.13;;;2.15;;
17365;SDS011;8800;50.118;9.900;2023-08-30T14:54:43;2.85;;;1.75;;
17365;SDS011;8800;50.118;9.900;2023-08-30T14:57:10;3.38;;;2.30;;
17365;SDS011;8800;50.118;9.900;2023-08-30T14:59:36;2.92;;;2.08;;